Time;durP1;ratioP1;P1;durP2;ratioP2;P2;SDS_P1;SDS_P2;PMS_P1;PMS_P2;Temp;Humidity;BMP_temperature;BMP_pressure;BME280_temperature;BME280_humidity;BME280_pressure;Samples;Min_cycle;Max_cycle;Signal;HPM_P1;HPM_P2
2021/10/20 00:01:28;;;;;;;19.25;10.30;;;;;;;;;;5075016;28;20020;-66
2021/10/20 00:03:54;;;;;;;18.70;9.43;;;;;;;;;;5075146;28;20043;-65
2021/10/20 00:06:20;;;;;;;17.40;9.48;;;;;;;;;;5074777;28;20112;-66
2021/10/20 00:08:50;;;;;;;17.67;9.50;;;;;;;;;;5074947;28;20077;-66
2021/10/20 00:11:16;;;;;;;18.60;9.82;;;;;;;;;;5075059;28;20031;-66
2021/10/20 00:13:42;;;;;;;17.90;9.20;;;;;;;;;;5075011;28;20024;-66
2021/10/20 00:16:08;;;;;;;16.27;8.90;;;;;;;;;;5074670;28;20054;-65
2021/10/20 00:18:35;;;;;;;18.63;9.57;;;;;;;;;;5074877;28;20152;-66
2021/10/20 00:21:05;;;;;;;17.63;8.90;;;;;;;;;;5074752;28;20052;-66
2021/10/20 00:23:31;;;;;;;15.40;8.10;;;;;;;;;;5074954;28;20062;-65
2021/10/20 00:25:57;;;;;;;17.77;9.18;;;;;;;;;;5074597;28;20024;-66
2021/10/20 00:28:23;;;;;;;16.83;8.63;;;;;;;;;;5074643;28;20097;-67
2021/10/20 00:30:49;;;;;;;18.42;8.93;;;;;;;;;;5074642;28;20020;-67
2021/10/20 00:33:15;;;;;;;17.42;8.80;;;;;;;;;;5074459;28;20070;-67
2021/10/20 00:35:41;;;;;;;16.27;9.07;;;;;;;;;;5074105;28;20073;-67
2021/10/20 00:38:07;;;;;;;17.40;8.52;;;;;;;;;;5074431;28;20074;-67
2021/10/20 00:40:33;;;;;;;17.30;8.80;;;;;;;;;;5074355;28;20032;-66
2021/10/20 00:42:59;;;;;;;20.20;9.50;;;;;;;;;;5074488;28;20027;-65
2021/10/20 00:45:25;;;;;;;17.13;8.50;;;;;;;;;;5074365;28;20020;-67
2021/10/20 00:47:51;;;;;;;15.98;7.88;;;;;;;;;;5074383;28;20392;-66
2021/10/20 00:50:17;;;;;;;16.52;8.23;;;;;;;;;;5074370;28;20035;-66
2021/10/20 00:52:43;;;;;;;17.90;8.90;;;;;;;;;;5074253;28;20028;-66
2021/10/20 00:55:10;;;;;;;16.90;9.02;;;;;;;;;;5074187;28;20069;-66
2021/10/20 00:57:36;;;;;;;16.95;8.65;;;;;;;;;;5073854;28;20031;-66
2021/10/20 01:00:05;;;;;;;16.20;8.40;;;;;;;;;;5073969;28;20031;-66
2021/10/20 01:02:31;;;;;;;17.25;8.20;;;;;;;;;;5074119;28;20017;-66
2021/10/20 01:04:57;;;;;;;16.02;8.57;;;;;;;;;;5072945;28;20476;-67
2021/10/20 01:07:23;;;;;;;17.52;8.65;;;;;;;;;;5073975;28;20409;-66
2021/10/20 01:09:49;;;;;;;16.33;8.70;;;;;;;;;;5073878;28;20089;-66
2021/10/20 01:12:18;;;;;;;16.23;8.43;;;;;;;;;;5073805;28;20020;-66
2021/10/20 01:14:45;;;;;;;17.13;8.65;;;;;;;;;;5073688;28;20020;-66
2021/10/20 01:17:11;;;;;;;17.38;8.95;;;;;;;;;;5073514;28;20065;-65
2021/10/20 01:19:38;;;;;;;19.98;9.30;;;;;;;;;;5073674;28;20023;-66
2021/10/20 01:22:04;;;;;;;15.40;8.55;;;;;;;;;;5073488;28;20024;-66
2021/10/20 01:24:30;;;;;;;16.13;8.60;;;;;;;;;;5073842;28;20051;-66
2021/10/20 01:26:56;;;;;;;17.02;8.90;;;;;;;;;;5073162;28;20458;-66
2021/10/20 01:29:23;;;;;;;14.43;8.25;;;;;;;;;;5073302;28;20532;-67
2021/10/20 01:31:49;;;;;;;16.08;8.88;;;;;;;;;;5073391;28;20194;-66
2021/10/20 01:34:15;;;;;;;16.88;8.85;;;;;;;;;;5073281;28;20024;-66
2021/10/20 01:36:43;;;;;;;15.90;8.55;;;;;;;;;;5073392;28;20042;-66
2021/10/20 01:39:09;;;;;;;15.90;8.95;;;;;;;;;;5073328;28;20077;-67
2021/10/20 01:41:36;;;;;;;19.27;8.75;;;;;;;;;;5073156;28;20031;-67
2021/10/20 01:44:02;;;;;;;17.05;8.90;;;;;;;;;;5073152;28;20020;-66
2021/10/20 01:46:28;;;;;;;16.17;8.23;;;;;;;;;;5073011;28;20024;-67
2021/10/20 01:48:54;;;;;;;16.30;8.30;;;;;;;;;;5073109;28;20023;-67
2021/10/20 01:51:20;;;;;;;15.77;8.50;;;;;;;;;;5074570;28;20028;-65
2021/10/20 01:53:46;;;;;;;15.15;8.57;;;;;;;;;;5072970;28;20016;-66
2021/10/20 01:56:12;;;;;;;15.88;8.15;;;;;;;;;;5072828;28;20027;-65
2021/10/20 01:58:39;;;;;;;14.82;8.63;;;;;;;;;;5072961;28;20020;-66
2021/10/20 02:01:08;;;;;;;16.15;8.48;;;;;;;;;;5072917;28;20024;-65
2021/10/20 02:03:35;;;;;;;15.75;8.98;;;;;;;;;;5072564;28;20051;-66
2021/10/20 02:06:02;;;;;;;15.63;8.43;;;;;;;;;;5072321;28;20028;-66
2021/10/20 02:08:28;;;;;;;15.75;8.38;;;;;;;;;;5072905;28;20072;-66
2021/10/20 02:10:54;;;;;;;15.93;8.95;;;;;;;;;;5072603;28;20028;-65
2021/10/20 02:13:20;;;;;;;17.15;8.68;;;;;;;;;;5072536;28;20111;-65
2021/10/20 02:15:46;;;;;;;15.98;8.70;;;;;;;;;;5072395;28;20020;-66
2021/10/20 02:18:12;;;;;;;15.68;9.00;;;;;;;;;;5072553;28;20028;-66
2021/10/20 02:20:38;;;;;;;15.80;9.43;;;;;;;;;;5072706;28;20023;-66
2021/10/20 02:23:04;;;;;;;15.68;8.73;;;;;;;;;;5072744;28;20035;-66
2021/10/20 02:25:30;;;;;;;15.68;8.18;;;;;;;;;;5072594;28;20016;-65
2021/10/20 02:27:56;;;;;;;17.65;9.57;;;;;;;;;;5072240;28;20116;-65
2021/10/20 02:30:22;;;;;;;15.63;8.63;;;;;;;;;;5072704;28;20480;-67
2021/10/20 02:32:48;;;;;;;18.35;9.10;;;;;;;;;;5072655;28;20024;-67
2021/10/20 02:35:14;;;;;;;15.68;8.70;;;;;;;;;;5072771;28;20026;-67
2021/10/20 02:37:40;;;;;;;16.15;8.55;;;;;;;;;;5072443;28;20024;-67
2021/10/20 02:40:08;;;;;;;15.85;8.88;;;;;;;;;;5072571;28;20488;-67
2021/10/20 02:42:34;;;;;;;15.30;8.83;;;;;;;;;;5072476;28;20036;-67
2021/10/20 02:45:00;;;;;;;15.77;9.07;;;;;;;;;;5072581;28;20035;-66
2021/10/20 02:47:26;;;;;;;17.20;8.85;;;;;;;;;;5072236;28;20487;-66
2021/10/20 02:49:52;;;;;;;16.52;8.77;;;;;;;;;;5072166;28;20072;-65
2021/10/20 02:52:18;;;;;;;16.45;9.00;;;;;;;;;;5072384;28;20035;-66
2021/10/20 02:54:45;;;;;;;16.00;9.13;;;;;;;;;;5072342;28;20021;-65
2021/10/20 02:57:11;;;;;;;20.20;9.45;;;;;;;;;;5090322;28;20020;-65
2021/10/20 02:59:37;;;;;;;18.88;9.80;;;;;;;;;;5072429;28;20032;-65
2021/10/20 03:02:03;;;;;;;18.65;9.07;;;;;;;;;;5072446;28;20059;-65
2021/10/20 03:04:29;;;;;;;16.70;9.52;;;;;;;;;;5072064;28;20035;-66
2021/10/20 03:06:55;;;;;;;16.63;9.25;;;;;;;;;;5072048;28;20024;-66
2021/10/20 03:09:21;;;;;;;16.42;9.35;;;;;;;;;;5072217;28;20124;-66
2021/10/20 03:11:47;;;;;;;18.42;9.45;;;;;;;;;;5072190;28;20031;-65
2021/10/20 03:14:14;;;;;;;16.38;9.20;;;;;;;;;;5072065;28;20056;-66
2021/10/20 03:16:41;;;;;;;16.73;9.48;;;;;;;;;;5072035;28;20024;-66
2021/10/20 03:19:07;;;;;;;17.27;9.18;;;;;;;;;;5072113;28;20122;-66
2021/10/20 03:21:33;;;;;;;17.13;9.13;;;;;;;;;;5072079;28;20496;-65
2021/10/20 03:23:59;;;;;;;15.77;9.85;;;;;;;;;;5071887;28;20527;-66
2021/10/20 03:26:25;;;;;;;19.13;9.23;;;;;;;;;;5071855;28;20371;-65
2021/10/20 03:28:51;;;;;;;16.58;9.55;;;;;;;;;;5073221;28;20028;-66
2021/10/20 03:31:17;;;;;;;15.82;8.85;;;;;;;;;;5075729;28;20522;-65
2021/10/20 03:33:44;;;;;;;15.95;9.00;;;;;;;;;;5075545;28;20031;-66
2021/10/20 03:36:10;;;;;;;17.85;9.65;;;;;;;;;;5075292;28;20476;-67
2021/10/20 03:38:36;;;;;;;16.30;9.32;;;;;;;;;;5075452;28;20051;-66
2021/10/20 03:41:02;;;;;;;18.10;9.90;;;;;;;;;;5093470;28;20470;-66
2021/10/20 03:43:28;;;;;;;18.02;9.52;;;;;;;;;;5075358;28;20122;-67
2021/10/20 03:45:54;;;;;;;17.52;9.52;;;;;;;;;;5075135;28;20547;-66
2021/10/20 03:48:20;;;;;;;16.30;8.55;;;;;;;;;;5075526;28;20470;-66
2021/10/20 03:50:46;;;;;;;17.52;9.25;;;;;;;;;;5075343;28;20032;-66
2021/10/20 03:53:12;;;;;;;17.60;10.00;;;;;;;;;;5075196;28;20086;-66
2021/10/20 03:55:38;;;;;;;19.63;9.93;;;;;;;;;;5074909;28;20345;-66
2021/10/20 03:58:04;;;;;;;16.10;9.57;;;;;;;;;;5074940;28;20031;-66
2021/10/20 04:00:31;;;;;;;15.73;8.93;;;;;;;;;;5075265;28;20065;-66
2021/10/20 04:02:57;;;;;;;16.95;9.90;;;;;;;;;;5074996;28;20043;-67
2021/10/20 04:05:23;;;;;;;16.33;10.00;;;;;;;;;;5075971;28;20488;-66
2021/10/20 04:07:50;;;;;;;18.90;9.95;;;;;;;;;;5075031;28;20506;-65
2021/10/20 04:10:17;;;;;;;16.35;9.90;;;;;;;;;;5075296;28;20034;-66
2021/10/20 04:12:44;;;;;;;18.67;10.57;;;;;;;;;;5075332;28;20368;-66
2021/10/20 04:15:10;;;;;;;17.60;10.35;;;;;;;;;;5075097;28;20020;-66
2021/10/20 04:17:38;;;;;;;18.48;10.32;;;;;;;;;;5074778;28;20049;-66
2021/10/20 04:20:04;;;;;;;17.10;10.18;;;;;;;;;;5074620;28;20039;-66
2021/10/20 04:22:30;;;;;;;17.85;10.30;;;;;;;;;;5074831;28;20122;-66
2021/10/20 04:24:56;;;;;;;16.70;9.00;;;;;;;;;;5074346;28;20181;-66
2021/10/20 04:27:22;;;;;;;16.98;10.07;;;;;;;;;;5074339;28;20024;-66
2021/10/20 04:29:48;;;;;;;17.65;10.20;;;;;;;;;;5074293;28;20027;-67
2021/10/20 04:32:14;;;;;;;17.65;10.13;;;;;;;;;;5074467;28;20476;-65
2021/10/20 04:34:40;;;;;;;17.33;10.07;;;;;;;;;;5074353;28;20483;-65
2021/10/20 04:37:06;;;;;;;16.98;9.65;;;;;;;;;;5073877;28;20020;-66
2021/10/20 04:39:33;;;;;;;17.17;9.80;;;;;;;;;;5074194;28;20123;-66
2021/10/20 04:41:59;;;;;;;16.25;9.77;;;;;;;;;;5074394;28;20020;-65
2021/10/20 04:44:25;;;;;;;16.75;9.98;;;;;;;;;;5074150;28;20085;-65
2021/10/20 04:46:51;;;;;;;17.13;10.05;;;;;;;;;;5073974;28;20031;-66
2021/10/20 04:49:17;;;;;;;17.55;10.48;;;;;;;;;;5074226;28;20032;-66
2021/10/20 04:51:43;;;;;;;16.48;9.55;;;;;;;;;;5074123;28;20541;-65
2021/10/20 04:54:09;;;;;;;17.25;10.32;;;;;;;;;;5073754;28;20024;-65
2021/10/20 04:56:35;;;;;;;17.52;9.95;;;;;;;;;;5073469;28;20073;-66
2021/10/20 04:59:01;;;;;;;16.77;10.55;;;;;;;;;;5073549;28;20051;-66
2021/10/20 05:01:27;;;;;;;17.10;9.10;;;;;;;;;;5072916;28;20392;-66
2021/10/20 05:03:53;;;;;;;17.38;10.50;;;;;;;;;;5115176;22;20070;-65
2021/10/20 05:06:19;;;;;;;17.00;10.30;;;;;;;;;;5073690;28;20032;-66
2021/10/20 05:08:45;;;;;;;17.42;9.48;;;;;;;;;;5074283;28;20020;-65
2021/10/20 05:11:11;;;;;;;17.55;10.18;;;;;;;;;;5074053;28;20028;-65
2021/10/20 05:13:37;;;;;;;17.00;10.38;;;;;;;;;;5074329;28;20020;-65
2021/10/20 05:16:03;;;;;;;16.40;9.52;;;;;;;;;;5071636;28;20482;-66
2021/10/20 05:18:29;;;;;;;16.83;10.10;;;;;;;;;;5058204;28;20031;-65
2021/10/20 05:20:55;;;;;;;16.88;10.50;;;;;;;;;;5072383;28;20028;-65
2021/10/20 05:23:21;;;;;;;20.05;11.00;;;;;;;;;;5070895;28;20021;-63
2021/10/20 05:25:47;;;;;;;17.77;10.00;;;;;;;;;;5053646;28;20033;-65
2021/10/20 05:28:13;;;;;;;17.50;10.65;;;;;;;;;;5054574;28;20142;-65
2021/10/20 05:30:39;;;;;;;18.10;10.23;;;;;;;;;;5054078;28;20161;-65
2021/10/20 05:33:05;;;;;;;20.42;10.98;;;;;;;;;;5067035;28;20058;-65
2021/10/20 05:35:31;;;;;;;17.00;10.63;;;;;;;;;;5073994;28;20024;-64
2021/10/20 05:37:57;;;;;;;17.67;10.50;;;;;;;;;;5074142;28;20027;-65
2021/10/20 05:40:24;;;;;;;17.95;11.27;;;;;;;;;;5073763;28;20119;-66
2021/10/20 05:42:51;;;;;;;17.73;11.40;;;;;;;;;;5073875;28;20039;-65
2021/10/20 05:45:17;;;;;;;19.15;11.07;;;;;;;;;;5074325;28;20024;-65
2021/10/20 05:47:43;;;;;;;17.15;10.70;;;;;;;;;;5073452;28;20097;-62
2021/10/20 05:50:09;;;;;;;17.73;10.60;;;;;;;;;;5060254;28;20020;-63
2021/10/20 05:52:35;;;;;;;17.08;10.25;;;;;;;;;;5053118;28;20020;-63
2021/10/20 05:55:02;;;;;;;20.67;11.15;;;;;;;;;;5053509;28;20323;-62
2021/10/20 05:57:28;;;;;;;18.02;10.95;;;;;;;;;;5053461;28;20020;-63
2021/10/20 05:59:54;;;;;;;19.20;10.90;;;;;;;;;;5053407;28;20103;-63
2021/10/20 06:02:20;;;;;;;20.48;11.30;;;;;;;;;;5053431;28;20024;-64
2021/10/20 06:04:46;;;;;;;17.70;10.75;;;;;;;;;;5052972;28;20555;-64
2021/10/20 06:07:12;;;;;;;18.27;11.00;;;;;;;;;;5053030;28;20461;-65
2021/10/20 06:09:38;;;;;;;16.63;10.27;;;;;;;;;;5053211;28;20112;-64
2021/10/20 06:12:05;;;;;;;17.92;10.70;;;;;;;;;;5053278;28;20083;-64
2021/10/20 06:14:31;;;;;;;19.25;11.52;;;;;;;;;;5053447;28;20021;-64
2021/10/20 06:16:57;;;;;;;16.77;10.90;;;;;;;;;;5069031;28;20027;-64
2021/10/20 06:19:23;;;;;;;17.33;10.25;;;;;;;;;;5074175;28;20030;-65
2021/10/20 06:21:50;;;;;;;17.67;11.25;;;;;;;;;;5073706;28;20047;-62
2021/10/20 06:24:16;;;;;;;17.67;9.77;;;;;;;;;;5072930;28;20500;-62
2021/10/20 06:26:42;;;;;;;18.85;10.45;;;;;;;;;;5073114;28;20052;-65
2021/10/20 06:29:08;;;;;;;18.00;10.75;;;;;;;;;;5073196;28;20491;-62
2021/10/20 06:31:34;;;;;;;18.42;10.38;;;;;;;;;;5072773;28;20020;-63
2021/10/20 06:34:00;;;;;;;18.48;11.48;;;;;;;;;;5073215;28;20028;-63
2021/10/20 06:36:30;;;;;;;16.33;10.48;;;;;;;;;;5072763;28;20025;-63
2021/10/20 06:38:57;;;;;;;19.02;10.63;;;;;;;;;;5072563;28;20464;-64
2021/10/20 06:41:23;;;;;;;20.20;10.43;;;;;;;;;;5072655;28;20449;-64
2021/10/20 06:43:49;;;;;;;17.70;11.05;;;;;;;;;;5072985;28;20443;-60
2021/10/20 06:46:15;;;;;;;18.25;10.57;;;;;;;;;;5072538;28;20229;-61
2021/10/20 06:48:41;;;;;;;17.65;10.57;;;;;;;;;;5072587;28;20040;-65
2021/10/20 06:51:07;;;;;;;17.50;10.75;;;;;;;;;;5072658;28;20487;-63
2021/10/20 06:53:34;;;;;;;17.52;11.13;;;;;;;;;;5072864;28;20024;-63
2021/10/20 06:56:01;;;;;;;17.95;10.35;;;;;;;;;;5072562;28;20029;-62
2021/10/20 06:58:27;;;;;;;17.00;10.13;;;;;;;;;;5072701;28;20394;-65
2021/10/20 07:00:53;;;;;;;17.70;10.70;;;;;;;;;;5072498;28;20518;-65
2021/10/20 07:03:19;;;;;;;18.00;10.98;;;;;;;;;;5073083;28;20115;-65
2021/10/20 07:05:45;;;;;;;20.40;12.20;;;;;;;;;;5076080;28;20028;-64
2021/10/20 07:08:11;;;;;;;19.33;11.70;;;;;;;;;;5076273;28;20024;-65
2021/10/20 07:10:37;;;;;;;18.77;10.88;;;;;;;;;;5076641;28;20024;-65
2021/10/20 07:13:04;;;;;;;21.13;11.48;;;;;;;;;;5076438;28;20020;-69
2021/10/20 07:15:30;;;;;;;18.83;11.75;;;;;;;;;;5076774;28;20096;-67
2021/10/20 07:17:56;;;;;;;18.52;12.38;;;;;;;;;;5076124;28;20020;-69
2021/10/20 07:20:22;;;;;;;25.35;12.38;;;;;;;;;;5076119;28;20034;-67
2021/10/20 07:22:48;;;;;;;18.10;11.23;;;;;;;;;;5076233;28;20024;-68
2021/10/20 07:25:15;;;;;;;18.80;12.48;;;;;;;;;;5076138;28;20108;-69
2021/10/20 07:27:42;;;;;;;17.95;11.20;;;;;;;;;;5076280;28;20032;-66
2021/10/20 07:30:09;;;;;;;22.60;12.10;;;;;;;;;;5076373;28;20126;-66
2021/10/20 07:32:37;;;;;;;17.05;10.90;;;;;;;;;;5076286;28;20024;-68
2021/10/20 07:35:03;;;;;;;19.10;11.10;;;;;;;;;;5076087;28;20111;-67
2021/10/20 07:37:29;;;;;;;21.15;11.77;;;;;;;;;;5069241;28;20270;-69
2021/10/20 07:39:55;;;;;;;17.38;10.48;;;;;;;;;;5065849;28;20044;-69
2021/10/20 07:42:21;;;;;;;19.60;10.98;;;;;;;;;;5064236;28;20372;-68
2021/10/20 07:44:48;;;;;;;19.25;11.75;;;;;;;;;;5067170;28;20020;-69
2021/10/20 07:47:15;;;;;;;19.15;11.70;;;;;;;;;;5075536;28;20043;-69
2021/10/20 07:49:41;;;;;;;20.10;12.25;;;;;;;;;;5075965;28;20032;-69
2021/10/20 07:52:07;;;;;;;16.98;11.20;;;;;;;;;;5075471;28;20044;-69
2021/10/20 07:54:33;;;;;;;18.88;11.55;;;;;;;;;;5075970;28;20034;-70
2021/10/20 07:56:59;;;;;;;19.08;11.63;;;;;;;;;;5075687;28;20481;-69
2021/10/20 07:59:25;;;;;;;18.40;11.35;;;;;;;;;;5076053;28;20024;-69
2021/10/20 08:01:51;;;;;;;19.30;10.63;;;;;;;;;;5096417;28;20031;-67
2021/10/20 08:04:17;;;;;;;18.52;11.18;;;;;;;;;;5072088;28;20033;-68
2021/10/20 08:06:43;;;;;;;18.70;10.95;;;;;;;;;;5055501;28;20021;-67
2021/10/20 08:09:09;;;;;;;18.92;11.25;;;;;;;;;;5071527;28;20021;-66
2021/10/20 08:11:35;;;;;;;21.75;12.68;;;;;;;;;;5053657;28;20110;-67
2021/10/20 08:14:03;;;;;;;19.65;11.88;;;;;;;;;;5053150;28;20013;-69
2021/10/20 08:16:29;;;;;;;18.77;11.75;;;;;;;;;;5062868;28;20475;-66
2021/10/20 08:18:55;;;;;;;17.52;10.90;;;;;;;;;;5073550;28;20036;-67
2021/10/20 08:21:21;;;;;;;18.52;11.07;;;;;;;;;;5073548;28;20093;-69
2021/10/20 08:23:48;;;;;;;19.30;10.73;;;;;;;;;;5074535;28;20543;-68
2021/10/20 08:26:15;;;;;;;19.77;11.35;;;;;;;;;;5075163;28;20020;-67
2021/10/20 08:28:41;;;;;;;18.77;11.60;;;;;;;;;;5075093;28;20024;-68
2021/10/20 08:31:07;;;;;;;19.70;10.88;;;;;;;;;;5075081;28;20056;-66
2021/10/20 08:33:33;;;;;;;18.27;11.60;;;;;;;;;;5074991;28;20035;-68
2021/10/20 08:35:59;;;;;;;18.92;11.77;;;;;;;;;;5074641;28;20078;-66
2021/10/20 08:38:25;;;;;;;18.63;11.38;;;;;;;;;;5074692;28;20110;-67
2021/10/20 08:40:52;;;;;;;17.85;12.05;;;;;;;;;;5074924;28;20031;-68
2021/10/20 08:43:21;;;;;;;18.40;11.52;;;;;;;;;;5074775;28;20085;-67
2021/10/20 08:45:48;;;;;;;16.73;11.70;;;;;;;;;;5074234;28;20027;-67
2021/10/20 08:48:18;;;;;;;17.73;11.85;;;;;;;;;;5074717;28;20476;-68
2021/10/20 08:50:45;;;;;;;17.35;11.60;;;;;;;;;;5074511;28;20035;-68
2021/10/20 08:53:11;;;;;;;18.33;11.45;;;;;;;;;;5074370;28;20034;-68
2021/10/20 08:55:37;;;;;;;18.65;12.05;;;;;;;;;;5075297;28;20017;-67
2021/10/20 08:58:03;;;;;;;17.45;11.82;;;;;;;;;;5074487;28;20031;-68
2021/10/20 09:00:29;;;;;;;18.65;11.98;;;;;;;;;;5074918;28;20074;-68
2021/10/20 09:02:55;;;;;;;17.73;11.45;;;;;;;;;;5074306;28;20381;-68
2021/10/20 09:05:23;;;;;;;17.67;11.77;;;;;;;;;;5074020;28;20032;-66
2021/10/20 09:07:51;;;;;;;17.33;11.45;;;;;;;;;;5073958;28;20360;-67
2021/10/20 09:10:17;;;;;;;17.58;11.88;;;;;;;;;;5073885;28;20034;-67
2021/10/20 09:12:43;;;;;;;19.00;11.48;;;;;;;;;;5073843;28;20020;-66
2021/10/20 09:15:29;;;;;;;18.45;12.25;;;;;;;;;;5073551;28;20017;-67
2021/10/20 09:17:59;;;;;;;18.35;11.05;;;;;;;;;;5070671;28;20468;-68
2021/10/20 09:20:27;;;;;;;17.90;11.70;;;;;;;;;;5070730;28;20476;-67
2021/10/20 09:23:01;;;;;;;18.80;11.40;;;;;;;;;;5070389;28;20050;-67
2021/10/20 09:25:33;;;;;;;21.35;11.02;;;;;;;;;;5070282;28;20322;-68
2021/10/20 09:27:59;;;;;;;16.75;10.65;;;;;;;;;;5070096;28;20020;-68
2021/10/20 09:30:27;;;;;;;20.00;12.88;;;;;;;;;;5070331;28;20028;-68
2021/10/20 09:32:56;;;;;;;18.55;10.85;;;;;;;;;;5070483;28;20026;-69
2021/10/20 09:35:22;;;;;;;17.60;11.02;;;;;;;;;;5070032;28;20090;-68
2021/10/20 09:37:48;;;;;;;18.92;11.57;;;;;;;;;;5070193;28;20021;-68
2021/10/20 09:40:14;;;;;;;19.02;11.80;;;;;;;;;;5070227;28;20024;-68
2021/10/20 09:42:48;;;;;;;19.75;11.18;;;;;;;;;;5070051;28;20107;-68
2021/10/20 09:45:19;;;;;;;16.70;10.40;;;;;;;;;;5069895;28;20633;-65
2021/10/20 09:47:45;;;;;;;17.80;10.80;;;;;;;;;;5069918;28;20036;-64
2021/10/20 09:50:11;;;;;;;22.00;11.07;;;;;;;;;;5069677;28;20352;-66
2021/10/20 09:52:47;;;;;;;21.38;11.07;;;;;;;;;;5070207;28;20024;-65
2021/10/20 09:55:13;;;;;;;18.45;10.43;;;;;;;;;;5069462;28;20030;-65
2021/10/20 09:57:39;;;;;;;17.65;10.52;;;;;;;;;;5069590;28;20013;-64
2021/10/20 10:00:07;;;;;;;18.38;10.20;;;;;;;;;;5070218;28;20452;-64
2021/10/20 10:02:34;;;;;;;18.45;10.07;;;;;;;;;;5070735;28;20025;-67
2021/10/20 10:05:01;;;;;;;18.45;10.40;;;;;;;;;;5070304;28;20119;-67
2021/10/20 10:07:27;;;;;;;18.48;10.48;;;;;;;;;;5069865;28;20440;-66
2021/10/20 10:09:53;;;;;;;18.23;10.20;;;;;;;;;;5070077;28;20028;-64
2021/10/20 10:12:22;;;;;;;19.15;10.40;;;;;;;;;;5070709;28;20020;-65
2021/10/20 10:14:55;;;;;;;18.08;9.77;;;;;;;;;;5069751;28;20131;-66
2021/10/20 10:17:22;;;;;;;18.55;10.80;;;;;;;;;;5073204;28;20126;-64
2021/10/20 10:19:48;;;;;;;18.30;10.15;;;;;;;;;;5076056;28;20390;-64
2021/10/20 10:22:24;;;;;;;17.60;11.45;;;;;;;;;;5074694;28;20020;-67
2021/10/20 10:24:50;;;;;;;17.40;10.50;;;;;;;;;;5073090;28;20024;-65
2021/10/20 10:27:17;;;;;;;18.60;10.63;;;;;;;;;;5090325;28;20020;-67
2021/10/20 10:29:52;;;;;;;17.80;9.95;;;;;;;;;;5073229;28;20099;-66
2021/10/20 10:32:19;;;;;;;17.75;10.68;;;;;;;;;;5091784;28;20423;-66
2021/10/20 10:34:46;;;;;;;17.00;9.63;;;;;;;;;;5091488;28;20012;-67
2021/10/20 10:37:30;;;;;;;17.95;10.48;;;;;;;;;;5091715;28;20020;-67
2021/10/20 10:39:56;;;;;;;17.48;10.93;;;;;;;;;;5095998;28;20047;-67
2021/10/20 10:42:44;;;;;;;17.35;10.73;;;;;;;;;;5077319;28;20616;-67
2021/10/20 10:45:11;;;;;;;;;;;;;;;;;;5095803;28;20490;-68
2021/10/20 10:47:53;;;;;;;17.55;10.60;;;;;;;;;;5076693;28;19904;-66
2021/10/20 10:50:20;;;;;;;22.88;12.52;;;;;;;;;;5095420;28;20467;-69
2021/10/20 10:52:46;;;;;;;17.70;10.60;;;;;;;;;;5077133;28;20046;-68
2021/10/20 10:55:17;;;;;;;19.45;11.65;;;;;;;;;;5077152;28;20057;-68
2021/10/20 10:57:45;;;;;;;17.45;11.18;;;;;;;;;;5095109;28;20039;-68
2021/10/20 11:00:20;;;;;;;17.93;10.50;;;;;;;;;;5095223;28;20024;-67
2021/10/20 11:02:51;;;;;;;18.15;11.27;;;;;;;;;;5076517;28;20344;-68
2021/10/20 11:05:22;;;;;;;17.50;10.63;;;;;;;;;;5077664;28;20055;-65
2021/10/20 11:07:49;;;;;;;17.35;10.32;;;;;;;;;;5094652;28;20024;-66
2021/10/20 11:10:16;;;;;;;18.23;10.23;;;;;;;;;;5095467;28;20383;-64
2021/10/20 11:12:46;;;;;;;18.88;11.02;;;;;;;;;;5094887;28;20107;-68
2021/10/20 11:15:12;;;;;;;17.52;10.70;;;;;;;;;;5094578;28;20070;-65
2021/10/20 11:17:38;;;;;;;18.05;11.13;;;;;;;;;;5094641;28;20063;-66
2021/10/20 11:20:05;;;;;;;17.63;11.52;;;;;;;;;;5094940;28;20483;-67
2021/10/20 11:22:31;;;;;;;18.40;11.35;;;;;;;;;;5095509;28;20026;-64
2021/10/20 11:24:59;;;;;;;20.58;12.02;;;;;;;;;;5094344;28;20519;-63
2021/10/20 11:27:25;;;;;;;18.27;10.80;;;;;;;;;;5094388;28;20099;-68
2021/10/20 11:29:52;;;;;;;18.42;10.73;;;;;;;;;;5076370;28;20028;-66
2021/10/20 11:32:19;;;;;;;18.58;10.25;;;;;;;;;;5076206;28;20533;-68
2021/10/20 11:34:46;;;;;;;17.77;11.00;;;;;;;;;;5094126;28;20024;-64
2021/10/20 11:37:13;;;;;;;19.67;10.80;;;;;;;;;;5094308;28;20089;-65
2021/10/20 11:39:40;;;;;;;19.00;11.32;;;;;;;;;;5094415;28;20020;-67
2021/10/20 11:42:09;;;;;;;18.38;10.73;;;;;;;;;;5094308;28;20020;-65
2021/10/20 11:44:39;;;;;;;19.20;11.70;;;;;;;;;;5093880;28;20012;-66
2021/10/20 11:47:06;;;;;;;18.25;11.50;;;;;;;;;;5093776;28;20016;-68
2021/10/20 11:49:35;;;;;;;22.90;11.35;;;;;;;;;;5074940;28;20432;-68
2021/10/20 11:52:03;;;;;;;20.17;12.07;;;;;;;;;;5075357;28;20156;-68
2021/10/20 11:54:29;;;;;;;20.42;10.95;;;;;;;;;;5094556;28;20027;-67
2021/10/20 11:56:56;;;;;;;17.63;11.05;;;;;;;;;;5075544;28;20020;-67
2021/10/20 11:59:24;;;;;;;17.98;10.63;;;;;;;;;;5075984;28;20145;-66
2021/10/20 12:01:50;;;;;;;17.50;10.48;;;;;;;;;;5075569;28;20412;-67
2021/10/20 12:04:17;;;;;;;19.13;11.70;;;;;;;;;;5075533;28;20475;-67
2021/10/20 12:06:43;;;;;;;17.55;10.57;;;;;;;;;;5094067;28;20028;-68
2021/10/20 12:09:13;;;;;;;17.00;10.88;;;;;;;;;;5076050;28;20016;-67
2021/10/20 12:11:39;;;;;;;20.63;11.70;;;;;;;;;;5093709;28;20008;-69
2021/10/20 12:14:06;;;;;;;19.98;10.45;;;;;;;;;;5075461;28;20017;-69
2021/10/20 12:16:33;;;;;;;18.45;10.02;;;;;;;;;;5075135;28;20022;-70
2021/10/20 12:19:00;;;;;;;17.92;10.35;;;;;;;;;;5075235;28;20089;-70
2021/10/20 12:21:30;;;;;;;16.60;10.52;;;;;;;;;;5075328;28;20024;-68
2021/10/20 12:23:57;;;;;;;19.25;10.40;;;;;;;;;;5075128;28;20111;-68
2021/10/20 12:26:24;;;;;;;17.73;10.23;;;;;;;;;;5075006;28;20417;-70
2021/10/20 12:28:50;;;;;;;17.77;10.20;;;;;;;;;;5075230;28;20032;-68
2021/10/20 12:31:18;;;;;;;17.77;9.80;;;;;;;;;;5075432;28;20020;-65
2021/10/20 12:33:47;;;;;;;20.40;10.48;;;;;;;;;;5074866;28;20424;-67
2021/10/20 12:36:13;;;;;;;20.20;9.80;;;;;;;;;;5092970;28;20024;-67
2021/10/20 12:38:40;;;;;;;20.60;10.38;;;;;;;;;;5075160;28;20024;-67
2021/10/20 12:41:07;;;;;;;28.02;11.07;;;;;;;;;;5093681;28;20486;-71
2021/10/20 12:43:34;;;;;;;17.63;11.48;;;;;;;;;;5093143;28;20024;-67
2021/10/20 12:46:00;;;;;;;18.00;10.98;;;;;;;;;;5092780;28;20027;-66
2021/10/20 12:48:30;;;;;;;18.08;10.23;;;;;;;;;;5092464;28;20024;-67
2021/10/20 12:50:56;;;;;;;18.48;10.35;;;;;;;;;;5092878;28;20020;-68
2021/10/20 12:53:25;;;;;;;18.13;10.80;;;;;;;;;;5074701;28;20452;-69
2021/10/20 12:55:52;;;;;;;17.75;10.27;;;;;;;;;;5092582;28;20020;-68
2021/10/20 12:58:20;;;;;;;18.55;9.90;;;;;;;;;;5074586;28;20429;-68
2021/10/20 13:00:47;;;;;;;19.98;10.27;;;;;;;;;;5091688;28;20020;-68
2021/10/20 13:03:16;;;;;;;17.65;10.57;;;;;;;;;;5074293;28;20049;-68
2021/10/20 13:05:42;;;;;;;16.90;10.02;;;;;;;;;;5092937;28;20020;-66
2021/10/20 13:08:08;;;;;;;18.00;9.98;;;;;;;;;;5093136;28;20456;-67
2021/10/20 13:10:34;;;;;;;22.38;10.55;;;;;;;;;;5074748;28;20015;-68
2021/10/20 13:13:00;;;;;;;19.55;10.20;;;;;;;;;;5092749;28;20486;-66
2021/10/20 13:15:30;;;;;;;18.27;9.35;;;;;;;;;;5092241;28;20016;-66
2021/10/20 13:18:00;;;;;;;18.02;10.10;;;;;;;;;;5074051;28;20092;-68
2021/10/20 13:20:26;;;;;;;18.67;9.23;;;;;;;;;;5093074;28;20108;-66
2021/10/20 13:22:56;;;;;;;17.15;8.63;;;;;;;;;;5092256;28;20121;-67
2021/10/20 13:25:22;;;;;;;16.15;8.32;;;;;;;;;;5092087;28;20452;-66
2021/10/20 13:27:48;;;;;;;19.17;8.98;;;;;;;;;;5092087;28;20055;-67
2021/10/20 13:30:16;;;;;;;17.63;9.43;;;;;;;;;;5073987;28;20034;-66
2021/10/20 13:32:42;;;;;;;16.90;9.25;;;;;;;;;;5074004;28;20356;-67
2021/10/20 13:35:09;;;;;;;17.65;9.07;;;;;;;;;;5092415;28;20020;-66
2021/10/20 13:37:35;;;;;;;18.83;9.32;;;;;;;;;;5092335;28;20424;-66
2021/10/20 13:40:02;;;;;;;16.15;8.13;;;;;;;;;;5092312;28;20028;-66
2021/10/20 13:42:29;;;;;;;20.00;9.50;;;;;;;;;;5073834;28;20106;-70
2021/10/20 13:44:57;;;;;;;16.85;8.68;;;;;;;;;;5092313;28;20365;-68
2021/10/20 13:47:23;;;;;;;;;;;;;;;;;;5092664;28;20081;-67
2021/10/20 13:49:49;;;;;;;15.85;7.85;;;;;;;;;;5074151;28;19903;-67
2021/10/20 13:52:15;;;;;;;15.98;8.27;;;;;;;;;;4738399;28;10000064;-65
2021/10/20 13:54:41;;;;;;;17.55;9.18;;;;;;;;;;5081480;28;20020;-68
2021/10/20 13:57:07;;;;;;;16.73;8.02;;;;;;;;;;5071397;28;20020;-67
2021/10/20 13:59:33;;;;;;;18.65;9.48;;;;;;;;;;5071324;28;20077;-67
2021/10/20 14:01:59;;;;;;;16.42;7.90;;;;;;;;;;5089654;28;20048;-66
2021/10/20 14:04:25;;;;;;;19.00;9.18;;;;;;;;;;5089324;28;20119;-67
2021/10/20 14:06:55;;;;;;;17.33;8.43;;;;;;;;;;5089509;28;20106;-65
2021/10/20 14:09:25;;;;;;;16.25;8.68;;;;;;;;;;5088854;28;20483;-66
2021/10/20 14:11:52;;;;;;;17.38;9.13;;;;;;;;;;5070382;28;20028;-66
2021/10/20 14:14:19;;;;;;;19.35;8.77;;;;;;;;;;5080263;28;20020;-66
2021/10/20 14:16:45;;;;;;;19.45;9.48;;;;;;;;;;5079752;28;20021;-68
2021/10/20 14:19:11;;;;;;;16.65;8.02;;;;;;;;;;5060995;28;20031;-66
2021/10/20 14:21:37;;;;;;;21.13;9.88;;;;;;;;;;5079158;28;20306;-67